sensor_id;sensor_type;location;lat;lon;timestamp;temperature;humidity
18361;SHT31;9308;48.550;9.108;2023-04-25T00:01:21;10.13;72.06
18361;SHT31;9308;48.550;9.108;2023-04-25T00:03:47;10.21;71.55
18361;SHT31;9308;48.550;9.108;2023-04-25T00:06:13;10.01;72.48
18361;SHT31;9308;48.550;9.108;2023-04-25T00:08:39;9.97;72.34
18361;SHT31;9308;48.550;9.108;2023-04-25T00:11:04;9.90;72.54
18361;SHT31;9308;48.550;9.108;2023-04-25T00:13:30;9.97;72.69
18361;SHT31;9308;48.550;9.108;2023-04-25T00:15:56;10.04;72.61
18361;SHT31;9308;48.550;9.108;2023-04-25T00:18:22;10.06;72.46
18361;SHT31;9308;48.550;9.108;2023-04-25T00:20:47;10.10;72.81
18361;SHT31;9308;48.550;9.108;2023-04-25T00:23:14;9.94;72.96
18361;SHT31;9308;48.550;9.108;2023-04-25T00:25:44;10.01;72.29
18361;SHT31;9308;48.550;9.108;2023-04-25T00:28:10;10.08;72.47
18361;SHT31;9308;48.550;9.108;2023-04-25T00:30:36;9.56;72.80
18361;SHT31;9308;48.550;9.108;2023-04-25T00:33:01;9.98;71.95
18361;SHT31;9308;48.550;9.108;2023-04-25T00:35:27;10.01;71.17
18361;SHT31;9308;48.550;9.108;2023-04-25T00:37:52;9.82;72.01
18361;SHT31;9308;48.550;9.108;2023-04-25T00:40:19;9.65;71.88
18361;SHT31;9308;48.550;9.108;2023-04-25T00:42:44;9.91;71.70
18361;SHT31;9308;48.550;9.108;2023-04-25T00:45:13;9.90;70.57
18361;SHT31;9308;48.550;9.108;2023-04-25T00:47:40;9.86;71.53
18361;SHT31;9308;48.550;9.108;2023-04-25T00:50:06;9.87;69.94
18361;SHT31;9308;48.550;9.108;2023-04-25T00:52:32;9.87;70.40
18361;SHT31;9308;48.550;9.108;2023-04-25T00:54:58;9.83;70.25
18361;SHT31;9308;48.550;9.108;2023-04-25T00:57:23;9.86;70.49
18361;SHT31;9308;48.550;9.108;2023-04-25T00:59:50;9.91;70.04
18361;SHT31;9308;48.550;9.108;2023-04-25T01:02:16;9.80;70.83
18361;SHT31;9308;48.550;9.108;2023-04-25T01:04:42;10.04;70.88
18361;SHT31;9308;48.550;9.108;2023-04-25T01:07:07;9.94;70.26
18361;SHT31;9308;48.550;9.108;2023-04-25T01:09:34;10.01;71.18
18361;SHT31;9308;48.550;9.108;2023-04-25T01:12:00;9.82;70.91
18361;SHT31;9308;48.550;9.108;2023-04-25T01:14:26;9.82;72.33
18361;SHT31;9308;48.550;9.108;2023-04-25T01:16:51;9.80;72.51
18361;SHT31;9308;48.550;9.108;2023-04-25T01:19:19;9.82;72.45
18361;SHT31;9308;48.550;9.108;2023-04-25T01:21:45;9.77;71.89
18361;SHT31;9308;48.550;9.108;2023-04-25T01:24:11;9.83;71.63
18361;SHT31;9308;48.550;9.108;2023-04-25T01:26:37;9.91;71.54
18361;SHT31;9308;48.550;9.108;2023-04-25T01:29:07;9.96;71.01
18361;SHT31;9308;48.550;9.108;2023-04-25T01:31:34;9.89;71.40
18361;SHT31;9308;48.550;9.108;2023-04-25T01:34:00;9.73;72.18
18361;SHT31;9308;48.550;9.108;2023-04-25T01:36:26;9.94;70.40
18361;SHT31;9308;48.550;9.108;2023-04-25T01:38:52;9.97;70.28
18361;SHT31;9308;48.550;9.108;2023-04-25T01:41:17;9.97;71.10
18361;SHT31;9308;48.550;9.108;2023-04-25T01:43:44;10.10;70.42
18361;SHT31;9308;48.550;9.108;2023-04-25T01:46:11;10.01;70.46
18361;SHT31;9308;48.550;9.108;2023-04-25T01:48:37;10.00;71.29
18361;SHT31;9308;48.550;9.108;2023-04-25T01:51:02;9.89;70.61
18361;SHT31;9308;48.550;9.108;2023-04-25T01:53:28;9.85;71.40
18361;SHT31;9308;48.550;9.108;2023-04-25T01:55:53;9.74;71.58
18361;SHT31;9308;48.550;9.108;2023-04-25T01:58:19;9.79;72.69
18361;SHT31;9308;48.550;9.108;2023-04-25T02:00:44;9.74;71.92
18361;SHT31;9308;48.550;9.108;2023-04-25T02:03:10;9.73;72.43
18361;SHT31;9308;48.550;9.108;2023-04-25T02:05:39;9.85;72.06
18361;SHT31;9308;48.550;9.108;2023-04-25T02:08:07;9.89;71.73
18361;SHT31;9308;48.550;9.108;2023-04-25T02:10:33;10.04;70.41
18361;SHT31;9308;48.550;9.108;2023-04-25T02:12:59;9.89;71.86
18361;SHT31;9308;48.550;9.108;2023-04-25T02:15:24;10.04;70.66
18361;SHT31;9308;48.550;9.108;2023-04-25T02:17:50;9.97;71.37
18361;SHT31;9308;48.550;9.108;2023-04-25T02:20:18;9.70;72.77
18361;SHT31;9308;48.550;9.108;2023-04-25T02:22:46;9.79;72.06
18361;SHT31;9308;48.550;9.108;2023-04-25T02:25:12;9.73;71.85
18361;SHT31;9308;48.550;9.108;2023-04-25T02:27:38;9.67;72.17
18361;SHT31;9308;48.550;9.108;2023-04-25T02:30:05;9.65;72.90
18361;SHT31;9308;48.550;9.108;2023-04-25T02:32:32;9.48;72.96
18361;SHT31;9308;48.550;9.108;2023-04-25T02:35:02;9.46;74.01
18361;SHT31;9308;48.550;9.108;2023-04-25T02:37:30;9.30;72.47
18361;SHT31;9308;48.550;9.108;2023-04-25T02:39:55;9.25;73.19
18361;SHT31;9308;48.550;9.108;2023-04-25T02:42:21;9.17;73.02
18361;SHT31;9308;48.550;9.108;2023-04-25T02:44:46;9.03;72.72
18361;SHT31;9308;48.550;9.108;2023-04-25T02:47:12;9.18;73.78
18361;SHT31;9308;48.550;9.108;2023-04-25T02:49:37;9.45;72.70
18361;SHT31;9308;48.550;9.108;2023-04-25T02:54:32;9.45;72.79
18361;SHT31;9308;48.550;9.108;2023-04-25T02:56:58;9.45;72.24
18361;SHT31;9308;48.550;9.108;2023-04-25T02:59:23;9.32;73.20
18361;SHT31;9308;48.550;9.108;2023-04-25T03:01:49;9.05;73.25
18361;SHT31;9308;48.550;9.108;2023-04-25T03:04:15;9.14;73.39
18361;SHT31;9308;48.550;9.108;2023-04-25T03:06:40;9.04;72.71
18361;SHT31;9308;48.550;9.108;2023-04-25T03:09:05;8.90;73.37
18361;SHT31;9308;48.550;9.108;2023-04-25T03:11:31;9.04;73.13
18361;SHT31;9308;48.550;9.108;2023-04-25T03:13:56;9.14;72.63
18361;SHT31;9308;48.550;9.108;2023-04-25T03:16:22;9.11;71.61
18361;SHT31;9308;48.550;9.108;2023-04-25T03:18:47;9.34;71.85
18361;SHT31;9308;48.550;9.108;2023-04-25T03:21:14;9.25;72.48
18361;SHT31;9308;48.550;9.108;2023-04-25T03:23:40;9.20;72.63
18361;SHT31;9308;48.550;9.108;2023-04-25T03:26:05;9.13;73.00
18361;SHT31;9308;48.550;9.108;2023-04-25T03:28:31;9.27;73.08
18361;SHT31;9308;48.550;9.108;2023-04-25T03:30:56;9.08;73.91
18361;SHT31;9308;48.550;9.108;2023-04-25T03:33:22;9.04;74.14
18361;SHT31;9308;48.550;9.108;2023-04-25T03:35:47;9.25;72.84
18361;SHT31;9308;48.550;9.108;2023-04-25T03:38:13;9.41;73.62
18361;SHT31;9308;48.550;9.108;2023-04-25T03:40:38;9.36;72.72
18361;SHT31;9308;48.550;9.108;2023-04-25T03:43:03;9.31;73.08
18361;SHT31;9308;48.550;9.108;2023-04-25T03:45:29;9.30;73.73
18361;SHT31;9308;48.550;9.108;2023-04-25T03:47:54;9.41;73.92
18361;SHT31;9308;48.550;9.108;2023-04-25T03:50:20;9.42;73.30
18361;SHT31;9308;48.550;9.108;2023-04-25T03:52:45;9.53;71.58
18361;SHT31;9308;48.550;9.108;2023-04-25T03:55:11;9.48;72.25
18361;SHT31;9308;48.550;9.108;2023-04-25T03:57:36;9.35;72.68
18361;SHT31;9308;48.550;9.108;2023-04-25T04:00:02;9.28;73.05
18361;SHT31;9308;48.550;9.108;2023-04-25T04:02:29;9.25;72.01
18361;SHT31;9308;48.550;9.108;2023-04-25T04:04:54;9.22;72.54
18361;SHT31;9308;48.550;9.108;2023-04-25T04:07:21;9.04;72.93
18361;SHT31;9308;48.550;9.108;2023-04-25T04:09:47;9.20;72.56
18361;SHT31;9308;48.550;9.108;2023-04-25T04:12:12;9.07;72.87
18361;SHT31;9308;48.550;9.108;2023-04-25T04:14:38;8.80;73.55
18361;SHT31;9308;48.550;9.108;2023-04-25T04:17:03;8.84;73.67
18361;SHT31;9308;48.550;9.108;2023-04-25T04:19:28;8.94;73.49
18361;SHT31;9308;48.550;9.108;2023-04-25T04:21:54;8.90;73.31
18361;SHT31;9308;48.550;9.108;2023-04-25T04:24:19;8.81;73.07
18361;SHT31;9308;48.550;9.108;2023-04-25T04:26:44;8.75;72.99
18361;SHT31;9308;48.550;9.108;2023-04-25T04:29:11;8.77;73.22
18361;SHT31;9308;48.550;9.108;2023-04-25T04:31:36;8.84;73.92
18361;SHT31;9308;48.550;9.108;2023-04-25T04:34:02;8.73;73.71
18361;SHT31;9308;48.550;9.108;2023-04-25T04:36:29;8.77;73.72
18361;SHT31;9308;48.550;9.108;2023-04-25T04:38:54;8.87;73.19
18361;SHT31;9308;48.550;9.108;2023-04-25T04:41:22;8.99;72.77
18361;SHT31;9308;48.550;9.108;2023-04-25T04:43:47;8.84;73.20
18361;SHT31;9308;48.550;9.108;2023-04-25T04:46:13;8.76;73.55
18361;SHT31;9308;48.550;9.108;2023-04-25T04:48:38;8.76;72.90
18361;SHT31;9308;48.550;9.108;2023-04-25T04:51:05;8.96;72.46
18361;SHT31;9308;48.550;9.108;2023-04-25T04:53:31;8.97;72.67
18361;SHT31;9308;48.550;9.108;2023-04-25T04:55:57;9.04;72.48
18361;SHT31;9308;48.550;9.108;2023-04-25T04:58:23;9.15;72.28
18361;SHT31;9308;48.550;9.108;2023-04-25T05:00:48;9.28;71.21
18361;SHT31;9308;48.550;9.108;2023-04-25T05:03:14;9.46;71.36
18361;SHT31;9308;48.550;9.108;2023-04-25T05:05:41;9.30;71.29
18361;SHT31;9308;48.550;9.108;2023-04-25T05:08:06;9.27;71.84
18361;SHT31;9308;48.550;9.108;2023-04-25T05:10:32;9.21;72.15
18361;SHT31;9308;48.550;9.108;2023-04-25T05:12:57;8.84;72.76
18361;SHT31;9308;48.550;9.108;2023-04-25T05:15:23;8.62;74.17
18361;SHT31;9308;48.550;9.108;2023-04-25T05:17:48;8.62;75.50
18361;SHT31;9308;48.550;9.108;2023-04-25T05:20:14;8.80;75.24
18361;SHT31;9308;48.550;9.108;2023-04-25T05:22:39;8.86;75.16
18361;SHT31;9308;48.550;9.108;2023-04-25T05:25:08;9.20;74.46
18361;SHT31;9308;48.550;9.108;2023-04-25T05:27:34;9.35;72.96
18361;SHT31;9308;48.550;9.108;2023-04-25T05:30:00;9.32;73.41
18361;SHT31;9308;48.550;9.108;2023-04-25T05:32:26;9.28;73.13
18361;SHT31;9308;48.550;9.108;2023-04-25T05:34:51;9.43;72.48
18361;SHT31;9308;48.550;9.108;2023-04-25T05:37:17;9.67;72.72
18361;SHT31;9308;48.550;9.108;2023-04-25T05:39:42;9.82;71.98
18361;SHT31;9308;48.550;9.108;2023-04-25T05:42:08;9.87;71.84
18361;SHT31;9308;48.550;9.108;2023-04-25T05:44:34;9.91;71.91
18361;SHT31;9308;48.550;9.108;2023-04-25T05:46:59;9.93;72.70
18361;SHT31;9308;48.550;9.108;2023-04-25T05:49:24;9.96;72.41
18361;SHT31;9308;48.550;9.108;2023-04-25T05:51:50;10.22;70.93
18361;SHT31;9308;48.550;9.108;2023-04-25T05:54:15;10.49;70.94
18361;SHT31;9308;48.550;9.108;2023-04-25T05:56:41;10.50;70.84
18361;SHT31;9308;48.550;9.108;2023-04-25T05:59:06;10.79;69.75
18361;SHT31;9308;48.550;9.108;2023-04-25T06:01:32;10.86;69.18
18361;SHT31;9308;48.550;9.108;2023-04-25T06:03:57;10.72;69.12
18361;SHT31;9308;48.550;9.108;2023-04-25T06:06:22;11.00;69.34
18361;SHT31;9308;48.550;9.108;2023-04-25T06:08:48;11.04;67.79
18361;SHT31;9308;48.550;9.108;2023-04-25T06:11:13;10.93;68.05
18361;SHT31;9308;48.550;9.108;2023-04-25T06:13:39;10.89;68.02
18361;SHT31;9308;48.550;9.108;2023-04-25T06:16:04;10.73;68.66
18361;SHT31;9308;48.550;9.108;2023-04-25T06:18:30;10.91;69.14
18361;SHT31;9308;48.550;9.108;2023-04-25T06:20:55;10.50;68.25
18361;SHT31;9308;48.550;9.108;2023-04-25T06:23:21;10.39;69.64
18361;SHT31;9308;48.550;9.108;2023-04-25T06:25:46;10.55;69.36
18361;SHT31;9308;48.550;9.108;2023-04-25T06:28:12;10.52;68.91
18361;SHT31;9308;48.550;9.108;2023-04-25T06:30:37;10.65;68.75
18361;SHT31;9308;48.550;9.108;2023-04-25T06:33:02;10.39;69.70
18361;SHT31;9308;48.550;9.108;2023-04-25T06:35:28;10.18;69.59
18361;SHT31;9308;48.550;9.108;2023-04-25T06:37:53;10.32;68.15
18361;SHT31;9308;48.550;9.108;2023-04-25T06:40:19;10.14;70.43
18361;SHT31;9308;48.550;9.108;2023-04-25T06:42:44;10.50;69.58
18361;SHT31;9308;48.550;9.108;2023-04-25T06:45:10;10.13;69.68
18361;SHT31;9308;48.550;9.108;2023-04-25T06:47:35;9.98;70.52
18361;SHT31;9308;48.550;9.108;2023-04-25T06:50:01;10.08;71.70
18361;SHT31;9308;48.550;9.108;2023-04-25T06:52:27;10.13;69.88
18361;SHT31;9308;48.550;9.108;2023-04-25T06:54:52;10.15;69.76
18361;SHT31;9308;48.550;9.108;2023-04-25T06:57:17;10.15;69.55
18361;SHT31;9308;48.550;9.108;2023-04-25T06:59:43;9.86;70.57
18361;SHT31;9308;48.550;9.108;2023-04-25T07:02:08;9.77;70.13
18361;SHT31;9308;48.550;9.108;2023-04-25T07:04:34;10.17;69.86
18361;SHT31;9308;48.550;9.108;2023-04-25T07:06:59;10.29;69.08
18361;SHT31;9308;48.550;9.108;2023-04-25T07:09:28;10.25;69.42
18361;SHT31;9308;48.550;9.108;2023-04-25T07:11:53;10.25;69.86
18361;SHT31;9308;48.550;9.108;2023-04-25T07:14:18;10.06;71.36
18361;SHT31;9308;48.550;9.108;2023-04-25T07:16:44;10.48;71.22
18361;SHT31;9308;48.550;9.108;2023-04-25T07:19:09;10.41;70.03
18361;SHT31;9308;48.550;9.108;2023-04-25T07:21:35;10.56;70.35
18361;SHT31;9308;48.550;9.108;2023-04-25T07:24:01;10.53;70.48
18361;SHT31;9308;48.550;9.108;2023-04-25T07:26:27;10.55;69.92
18361;SHT31;9308;48.550;9.108;2023-04-25T07:28:52;10.58;70.45
18361;SHT31;9308;48.550;9.108;2023-04-25T07:31:19;10.77;69.67
18361;SHT31;9308;48.550;9.108;2023-04-25T07:33:45;10.89;70.06
18361;SHT31;9308;48.550;9.108;2023-04-25T07:36:11;10.79;70.27
18361;SHT31;9308;48.550;9.108;2023-04-25T07:38:38;10.46;71.56
18361;SHT31;9308;48.550;9.108;2023-04-25T07:41:03;10.65;70.94
18361;SHT31;9308;48.550;9.108;2023-04-25T07:43:29;10.61;71.60
18361;SHT31;9308;48.550;9.108;2023-04-25T07:45:56;10.22;73.36
18361;SHT31;9308;48.550;9.108;2023-04-25T07:48:22;10.55;72.08
18361;SHT31;9308;48.550;9.108;2023-04-25T07:50:47;10.61;71.75
18361;SHT31;9308;48.550;9.108;2023-04-25T07:53:13;10.44;72.01
18361;SHT31;9308;48.550;9.108;2023-04-25T07:55:38;10.53;72.44
18361;SHT31;9308;48.550;9.108;2023-04-25T07:58:06;10.45;72.70
18361;SHT31;9308;48.550;9.108;2023-04-25T08:00:32;10.53;72.27
18361;SHT31;9308;48.550;9.108;2023-04-25T08:02:57;10.65;71.41
18361;SHT31;9308;48.550;9.108;2023-04-25T08:05:22;10.56;71.99
18361;SHT31;9308;48.550;9.108;2023-04-25T08:07:48;10.72;71.17
18361;SHT31;9308;48.550;9.108;2023-04-25T08:10:13;10.73;71.70
18361;SHT31;9308;48.550;9.108;2023-04-25T08:12:39;10.53;72.26
18361;SHT31;9308;48.550;9.108;2023-04-25T08:15:05;10.55;72.03
18361;SHT31;9308;48.550;9.108;2023-04-25T08:17:31;10.62;71.52
18361;SHT31;9308;48.550;9.108;2023-04-25T08:19:57;10.56;71.95
18361;SHT31;9308;48.550;9.108;2023-04-25T08:22:22;10.39;71.38
18361;SHT31;9308;48.550;9.108;2023-04-25T08:24:48;10.44;72.47
18361;SHT31;9308;48.550;9.108;2023-04-25T08:27:13;10.45;72.48
18361;SHT31;9308;48.550;9.108;2023-04-25T08:29:39;10.66;72.17
18361;SHT31;9308;48.550;9.108;2023-04-25T08:32:04;10.48;72.86
18361;SHT31;9308;48.550;9.108;2023-04-25T08:34:30;10.61;72.51
18361;SHT31;9308;48.550;9.108;2023-04-25T08:36:55;10.53;70.99
18361;SHT31;9308;48.550;9.108;2023-04-25T08:39:20;10.48;70.37
18361;SHT31;9308;48.550;9.108;2023-04-25T08:41:46;10.14;71.56
18361;SHT31;9308;48.550;9.108;2023-04-25T08:44:13;10.35;71.03
18361;SHT31;9308;48.550;9.108;2023-04-25T08:46:39;10.34;71.34
18361;SHT31;9308;48.550;9.108;2023-04-25T08:49:07;10.11;71.39
18361;SHT31;9308;48.550;9.108;2023-04-25T08:51:32;9.98;71.32
18361;SHT31;9308;48.550;9.108;2023-04-25T08:54:18;10.28;71.74
18361;SHT31;9308;48.550;9.108;2023-04-25T08:56:47;10.13;71.83
18361;SHT31;9308;48.550;9.108;2023-04-25T08:59:13;10.18;72.71
18361;SHT31;9308;48.550;9.108;2023-04-25T09:01:39;10.17;72.07
18361;SHT31;9308;48.550;9.108;2023-04-25T09:04:05;9.93;72.74
18361;SHT31;9308;48.550;9.108;2023-04-25T09:06:31;9.97;73.23
18361;SHT31;9308;48.550;9.108;2023-04-25T09:09:07;9.60;74.54
18361;SHT31;9308;48.550;9.108;2023-04-25T09:11:33;9.86;73.09
18361;SHT31;9308;48.550;9.108;2023-04-25T09:21:53;9.76;71.28
18361;SHT31;9308;48.550;9.108;2023-04-25T09:24:33;9.70;72.40
18361;SHT31;9308;48.550;9.108;2023-04-25T09:27:00;9.70;72.76
18361;SHT31;9308;48.550;9.108;2023-04-25T09:29:34;9.79;72.70
18361;SHT31;9308;48.550;9.108;2023-04-25T09:32:15;9.76;73.06
18361;SHT31;9308;48.550;9.108;2023-04-25T09:34:43;9.60;73.09
18361;SHT31;9308;48.550;9.108;2023-04-25T09:37:10;9.73;72.79
18361;SHT31;9308;48.550;9.108;2023-04-25T09:39:38;9.51;74.57
18361;SHT31;9308;48.550;9.108;2023-04-25T09:42:05;9.73;73.79
18361;SHT31;9308;48.550;9.108;2023-04-25T09:44:31;9.45;73.33
18361;SHT31;9308;48.550;9.108;2023-04-25T09:46:56;9.90;73.55
18361;SHT31;9308;48.550;9.108;2023-04-25T09:49:22;9.85;72.28
18361;SHT31;9308;48.550;9.108;2023-04-25T09:51:58;9.56;74.05
18361;SHT31;9308;48.550;9.108;2023-04-25T09:54:26;9.52;73.04
18361;SHT31;9308;48.550;9.108;2023-04-25T09:56:53;8.86;73.30
18361;SHT31;9308;48.550;9.108;2023-04-25T09:59:22;8.86;74.87
18361;SHT31;9308;48.550;9.108;2023-04-25T10:01:49;8.63;74.19
18361;SHT31;9308;48.550;9.108;2023-04-25T10:04:19;8.96;74.42
18361;SHT31;9308;48.550;9.108;2023-04-25T10:06:48;8.67;72.62
18361;SHT31;9308;48.550;9.108;2023-04-25T10:09:16;8.11;74.65
18361;SHT31;9308;48.550;9.108;2023-04-25T10:11:44;8.62;74.16
18361;SHT31;9308;48.550;9.108;2023-04-25T10:14:10;8.87;73.54
18361;SHT31;9308;48.550;9.108;2023-04-25T10:16:37;8.84;73.02
18361;SHT31;9308;48.550;9.108;2023-04-25T10:19:03;8.46;73.70
18361;SHT31;9308;48.550;9.108;2023-04-25T10:21:31;8.53;73.81
18361;SHT31;9308;48.550;9.108;2023-04-25T10:23:58;8.31;72.93
18361;SHT31;9308;48.550;9.108;2023-04-25T10:26:24;8.28;73.53
18361;SHT31;9308;48.550;9.108;2023-04-25T10:29:00;8.35;74.86
18361;SHT31;9308;48.550;9.108;2023-04-25T10:31:26;8.57;72.24
18361;SHT31;9308;48.550;9.108;2023-04-25T10:33:53;8.67;73.35
18361;SHT31;9308;48.550;9.108;2023-04-25T10:36:19;9.01;72.56
18361;SHT31;9308;48.550;9.108;2023-04-25T10:38:49;8.67;71.83
18361;SHT31;9308;48.550;9.108;2023-04-25T10:41:18;8.31;71.58
18361;SHT31;9308;48.550;9.108;2023-04-25T10:43:47;8.45;72.49
18361;SHT31;9308;48.550;9.108;2023-04-25T10:46:25;8.31;72.49
18361;SHT31;9308;48.550;9.108;2023-04-25T10:48:58;8.99;73.02
18361;SHT31;9308;48.550;9.108;2023-04-25T10:51:27;9.07;72.65
18361;SHT31;9308;48.550;9.108;2023-04-25T10:56:22;9.08;72.98
18361;SHT31;9308;48.550;9.108;2023-04-25T10:58:48;8.62;73.98
18361;SHT31;9308;48.550;9.108;2023-04-25T11:01:15;8.96;73.15
18361;SHT31;9308;48.550;9.108;2023-04-25T11:03:44;9.30;70.98
18361;SHT31;9308;48.550;9.108;2023-04-25T11:06:30;9.14;72.47
18361;SHT31;9308;48.550;9.108;2023-04-25T11:09:00;9.35;72.58
18361;SHT31;9308;48.550;9.108;2023-04-25T11:11:26;9.15;71.55
18361;SHT31;9308;48.550;9.108;2023-04-25T11:13:52;9.04;70.92
18361;SHT31;9308;48.550;9.108;2023-04-25T11:16:17;9.38;71.81
18361;SHT31;9308;48.550;9.108;2023-04-25T11:18:43;9.24;71.43
18361;SHT31;9308;48.550;9.108;2023-04-25T11:21:10;9.11;72.10
18361;SHT31;9308;48.550;9.108;2023-04-25T11:23:36;8.94;73.40
18361;SHT31;9308;48.550;9.108;2023-04-25T11:26:02;9.14;72.66
18361;SHT31;9308;48.550;9.108;2023-04-25T11:28:28;9.27;72.39
18361;SHT31;9308;48.550;9.108;2023-04-25T11:30:53;9.21;71.90
18361;SHT31;9308;48.550;9.108;2023-04-25T11:33:23;9.34;72.22
18361;SHT31;9308;48.550;9.108;2023-04-25T11:35:49;9.21;72.06
18361;SHT31;9308;48.550;9.108;2023-04-25T11:38:15;9.67;71.66
18361;SHT31;9308;48.550;9.108;2023-04-25T11:40:40;9.77;69.78
18361;SHT31;9308;48.550;9.108;2023-04-25T11:43:06;9.67;69.83
18361;SHT31;9308;48.550;9.108;2023-04-25T11:45:32;10.44;69.40
18361;SHT31;9308;48.550;9.108;2023-04-25T11:47:57;11.86;67.32
18361;SHT31;9308;48.550;9.108;2023-04-25T11:50:23;12.13;64.95
18361;SHT31;9308;48.550;9.108;2023-04-25T11:52:48;11.75;66.95
18361;SHT31;9308;48.550;9.108;2023-04-25T11:57:42;11.61;67.51
18361;SHT31;9308;48.550;9.108;2023-04-25T12:00:19;11.69;68.19
18361;SHT31;9308;48.550;9.108;2023-04-25T12:02:56;11.12;67.82
18361;SHT31;9308;48.550;9.108;2023-04-25T12:05:25;10.83;69.19
18361;SHT31;9308;48.550;9.108;2023-04-25T12:07:51;10.71;70.40
18361;SHT31;9308;48.550;9.108;2023-04-25T12:10:17;10.41;69.38
18361;SHT31;9308;48.550;9.108;2023-04-25T12:12:45;10.55;69.33
18361;SHT31;9308;48.550;9.108;2023-04-25T12:15:19;10.28;70.62
18361;SHT31;9308;48.550;9.108;2023-04-25T12:17:50;10.63;70.62
18361;SHT31;9308;48.550;9.108;2023-04-25T12:20:17;10.66;69.65
18361;SHT31;9308;48.550;9.108;2023-04-25T12:22:47;10.53;70.50
18361;SHT31;9308;48.550;9.108;2023-04-25T12:25:37;10.58;69.09
18361;SHT31;9308;48.550;9.108;2023-04-25T12:28:22;10.15;70.30
18361;SHT31;9308;48.550;9.108;2023-04-25T12:31:05;10.20;69.79
18361;SHT31;9308;48.550;9.108;2023-04-25T12:33:33;10.84;70.19
18361;SHT31;9308;48.550;9.108;2023-04-25T12:35:59;10.29;69.63
18361;SHT31;9308;48.550;9.108;2023-04-25T12:38:30;10.53;71.05
18361;SHT31;9308;48.550;9.108;2023-04-25T12:40:57;11.10;70.10
18361;SHT31;9308;48.550;9.108;2023-04-25T12:43:22;11.11;69.13
18361;SHT31;9308;48.550;9.108;2023-04-25T12:45:52;10.90;69.20
18361;SHT31;9308;48.550;9.108;2023-04-25T12:48:18;10.71;68.81
18361;SHT31;9308;48.550;9.108;2023-04-25T12:50:44;10.82;70.25
18361;SHT31;9308;48.550;9.108;2023-04-25T12:53:10;10.84;69.61
18361;SHT31;9308;48.550;9.108;2023-04-25T12:55:37;10.90;69.65
18361;SHT31;9308;48.550;9.108;2023-04-25T12:58:02;10.96;67.55
18361;SHT31;9308;48.550;9.108;2023-04-25T13:00:29;11.29;69.66
18361;SHT31;9308;48.550;9.108;2023-04-25T13:02:55;11.38;69.28
18361;SHT31;9308;48.550;9.108;2023-04-25T13:05:20;11.73;68.83
18361;SHT31;9308;48.550;9.108;2023-04-25T13:07:46;11.98;67.94
18361;SHT31;9308;48.550;9.108;2023-04-25T13:10:11;11.73;66.77
18361;SHT31;9308;48.550;9.108;2023-04-25T13:12:36;11.27;67.15
18361;SHT31;9308;48.550;9.108;2023-04-25T13:15:02;11.15;68.82
18361;SHT31;9308;48.550;9.108;2023-04-25T13:17:28;11.17;70.77
18361;SHT31;9308;48.550;9.108;2023-04-25T13:19:53;11.76;67.57
18361;SHT31;9308;48.550;9.108;2023-04-25T13:22:18;12.13;65.31
18361;SHT31;9308;48.550;9.108;2023-04-25T13:24:46;12.23;66.82
18361;SHT31;9308;48.550;9.108;2023-04-25T13:27:12;12.13;64.57
18361;SHT31;9308;48.550;9.108;2023-04-25T13:29:38;12.41;65.75
18361;SHT31;9308;48.550;9.108;2023-04-25T13:32:06;12.45;67.43
18361;SHT31;9308;48.550;9.108;2023-04-25T13:34:31;13.24;63.88
18361;SHT31;9308;48.550;9.108;2023-04-25T13:36:57;12.96;65.96
18361;SHT31;9308;48.550;9.108;2023-04-25T13:39:22;12.87;65.64
18361;SHT31;9308;48.550;9.108;2023-04-25T13:41:48;13.07;65.42
18361;SHT31;9308;48.550;9.108;2023-04-25T13:44:13;13.30;63.19
18361;SHT31;9308;48.550;9.108;2023-04-25T13:46:39;17.21;56.15
18361;SHT31;9308;48.550;9.108;2023-04-25T13:49:04;19.92;46.31
18361;SHT31;9308;48.550;9.108;2023-04-25T13:51:30;21.13;44.66
18361;SHT31;9308;48.550;9.108;2023-04-25T13:53:56;21.81;42.84
18361;SHT31;9308;48.550;9.108;2023-04-25T13:56:21;19.28;45.36
18361;SHT31;9308;48.550;9.108;2023-04-25T13:58:49;16.66;53.85
18361;SHT31;9308;48.550;9.108;2023-04-25T14:01:15;15.90;53.88
18361;SHT31;9308;48.550;9.108;2023-04-25T14:03:40;14.83;56.29
18361;SHT31;9308;48.550;9.108;2023-04-25T14:06:06;15.08;57.32
18361;SHT31;9308;48.550;9.108;2023-04-25T14:08:32;16.47;53.62
18361;SHT31;9308;48.550;9.108;2023-04-25T14:10:57;17.59;51.44
18361;SHT31;9308;48.550;9.108;2023-04-25T14:13:22;17.54;47.93
18361;SHT31;9308;48.550;9.108;2023-04-25T14:15:49;21.50;42.02
18361;SHT31;9308;48.550;9.108;2023-04-25T14:18:15;27.14;32.71
18361;SHT31;9308;48.550;9.108;2023-04-25T14:20:41;20.02;43.93
18361;SHT31;9308;48.550;9.108;2023-04-25T14:23:06;20.95;41.66
18361;SHT31;9308;48.550;9.108;2023-04-25T14:25:32;17.23;48.89
18361;SHT31;9308;48.550;9.108;2023-04-25T14:27:57;17.32;49.91
18361;SHT31;9308;48.550;9.108;2023-04-25T14:30:22;19.86;44.83
18361;SHT31;9308;48.550;9.108;2023-04-25T14:32:51;18.09;47.14
18361;SHT31;9308;48.550;9.108;2023-04-25T14:35:16;16.21;50.92
18361;SHT31;9308;48.550;9.108;2023-04-25T14:37:42;15.65;51.08
18361;SHT31;9308;48.550;9.108;2023-04-25T14:40:08;14.71;52.50
18361;SHT31;9308;48.550;9.108;2023-04-25T14:42:39;16.26;51.23
18361;SHT31;9308;48.550;9.108;2023-04-25T14:45:06;15.18;54.09
18361;SHT31;9308;48.550;9.108;2023-04-25T14:47:33;14.47;55.81
18361;SHT31;9308;48.550;9.108;2023-04-25T14:49:58;14.42;55.17
18361;SHT31;9308;48.550;9.108;2023-04-25T14:52:24;14.35;56.46
18361;SHT31;9308;48.550;9.108;2023-04-25T14:54:51;14.04;55.51
18361;SHT31;9308;48.550;9.108;2023-04-25T14:57:16;15.23;53.92
18361;SHT31;9308;48.550;9.108;2023-04-25T14:59:42;15.07;52.83
18361;SHT31;9308;48.550;9.108;2023-04-25T15:02:07;15.87;52.11
18361;SHT31;9308;48.550;9.108;2023-04-25T15:04:33;13.90;55.34
18361;SHT31;9308;48.550;9.108;2023-04-25T15:06:58;13.96;56.78
18361;SHT31;9308;48.550;9.108;2023-04-25T15:09:24;13.93;55.90
18361;SHT31;9308;48.550;9.108;2023-04-25T15:11:50;13.55;57.43
18361;SHT31;9308;48.550;9.108;2023-04-25T15:14:17;16.31;51.59
18361;SHT31;9308;48.550;9.108;2023-04-25T15:16:43;24.61;34.65
18361;SHT31;9308;48.550;9.108;2023-04-25T15:19:08;27.22;30.39
18361;SHT31;9308;48.550;9.108;2023-04-25T15:21:34;25.91;29.81
18361;SHT31;9308;48.550;9.108;2023-04-25T15:24:00;28.14;28.93
18361;SHT31;9308;48.550;9.108;2023-04-25T15:26:27;24.84;30.23
18361;SHT31;9308;48.550;9.108;2023-04-25T15:28:52;18.67;40.95
18361;SHT31;9308;48.550;9.108;2023-04-25T15:31:18;17.17;44.96
18361;SHT31;9308;48.550;9.108;2023-04-25T15:33:44;16.37;48.68
18361;SHT31;9308;48.550;9.108;2023-04-25T15:36:09;15.31;53.15
18361;SHT31;9308;48.550;9.108;2023-04-25T15:38:36;14.68;54.90
18361;SHT31;9308;48.550;9.108;2023-04-25T15:41:01;13.89;55.41
18361;SHT31;9308;48.550;9.108;2023-04-25T15:43:27;14.01;55.24
18361;SHT31;9308;48.550;9.108;2023-04-25T15:45:53;14.17;54.28
18361;SHT31;9308;48.550;9.108;2023-04-25T15:48:18;14.39;54.45
18361;SHT31;9308;48.550;9.108;2023-04-25T15:50:44;13.94;55.73
18361;SHT31;9308;48.550;9.108;2023-04-25T15:53:09;13.86;57.33
18361;SHT31;9308;48.550;9.108;2023-04-25T15:55:35;14.32;57.08
18361;SHT31;9308;48.550;9.108;2023-04-25T15:58:01;13.75;57.94
18361;SHT31;9308;48.550;9.108;2023-04-25T16:00:26;13.94;57.90
18361;SHT31;9308;48.550;9.108;2023-04-25T16:02:52;13.99;57.82
18361;SHT31;9308;48.550;9.108;2023-04-25T16:05:17;13.56;57.81